createdAt,value
2019-05-22T00:01:25.668Z,15.80
2019-05-22T00:03:59.394Z,15.80
2019-05-22T00:06:39.764Z,15.80
2019-05-22T00:09:23.218Z,15.80
2019-05-22T00:11:56.155Z,15.80
2019-05-22T00:14:30.676Z,15.80
2019-05-22T00:17:03.196Z,15.80
2019-05-22T00:19:34.248Z,15.80
2019-05-22T00:22:11.738Z,15.80
2019-05-22T00:24:46.115Z,15.90
2019-05-22T00:27:19.874Z,15.80
2019-05-22T00:29:53.254Z,15.80
2019-05-22T00:32:27.536Z,15.80
2019-05-22T00:34:59.011Z,15.80
2019-05-22T00:37:31.483Z,15.80
2019-05-22T00:40:05.346Z,15.80
2019-05-22T00:42:38.334Z,15.80
2019-05-22T00:45:13.071Z,15.70
2019-05-22T00:47:45.533Z,15.70
2019-05-22T00:50:21.515Z,15.60
2019-05-22T00:53:10.083Z,15.60
2019-05-22T00:56:00.492Z,15.60
2019-05-22T00:58:36.288Z,15.60
2019-05-22T01:01:32.804Z,15.60
2019-05-22T01:04:07.654Z,15.60
2019-05-22T01:06:39.041Z,15.60
2019-05-22T01:09:17.962Z,15.50
2019-05-22T01:11:49.044Z,15.50
2019-05-22T01:14:21.408Z,15.50
2019-05-22T01:16:52.546Z,15.40
2019-05-22T01:19:25.074Z,15.40
2019-05-22T01:21:56.632Z,15.40
2019-05-22T01:24:28.731Z,15.40
2019-05-22T01:27:00.105Z,15.30
2019-05-22T01:29:33.149Z,15.30
2019-05-22T01:32:17.250Z,15.30
2019-05-22T01:34:48.839Z,15.30
2019-05-22T01:37:21.083Z,15.20
2019-05-22T01:39:58.813Z,15.10
2019-05-22T01:42:40.014Z,15.10
2019-05-22T01:45:14.140Z,15.20
2019-05-22T01:48:00.407Z,15.10
2019-05-22T01:50:53.804Z,15.10
2019-05-22T01:53:33.000Z,15.10
2019-05-22T01:56:08.342Z,15.10
2019-05-22T01:58:42.687Z,15.10
2019-05-22T02:01:21.061Z,15.10
2019-05-22T02:03:54.959Z,15.10
2019-05-22T02:06:28.723Z,15.20
2019-05-22T02:09:21.232Z,15.10
2019-05-22T02:11:57.327Z,15.10
2019-05-22T02:14:30.121Z,15.10
2019-05-22T02:17:01.401Z,15.10
2019-05-22T02:19:33.253Z,15.10
2019-05-22T02:22:05.268Z,15.00
2019-05-22T02:24:39.565Z,15.00
2019-05-22T02:27:12.706Z,15.00
2019-05-22T02:29:44.986Z,14.90
2019-05-22T02:32:18.109Z,14.90
2019-05-22T02:34:49.281Z,14.80
2019-05-22T02:37:22.216Z,14.80
2019-05-22T02:39:56.060Z,14.70
2019-05-22T02:42:33.321Z,14.70
2019-05-22T02:45:05.367Z,14.70
2019-05-22T02:47:38.436Z,14.70
2019-05-22T02:50:10.946Z,14.70
2019-05-22T02:52:43.059Z,14.60
2019-05-22T02:55:15.959Z,14.60
2019-05-22T02:57:47.070Z,14.60
2019-05-22T03:00:20.080Z,14.60
2019-05-22T03:02:53.917Z,14.60
2019-05-22T03:05:27.032Z,14.60
2019-05-22T03:07:59.520Z,14.70
2019-05-22T03:10:30.725Z,14.70
2019-05-22T03:13:04.470Z,14.70
2019-05-22T03:15:35.748Z,14.60
2019-05-22T03:18:08.899Z,14.70
2019-05-22T03:20:42.057Z,14.70
2019-05-22T03:23:36.608Z,14.70
2019-05-22T03:26:10.774Z,14.70
2019-05-22T03:28:42.263Z,14.70
2019-05-22T03:31:14.003Z,14.70
2019-05-22T03:33:45.774Z,14.80
2019-05-22T03:36:21.464Z,14.80
2019-05-22T03:38:53.400Z,14.90
2019-05-22T03:41:25.422Z,15.00
2019-05-22T03:43:58.632Z,15.10
2019-05-22T03:46:43.744Z,15.10
2019-05-22T03:49:29.696Z,15.20
2019-05-22T03:51:52.832Z,15.30
2019-05-22T03:54:26.041Z,15.40
2019-05-22T03:56:57.199Z,15.50
2019-05-22T03:59:29.020Z,15.60
2019-05-22T04:02:00.797Z,15.60
2019-05-22T04:04:39.203Z,15.70
2019-05-22T04:07:17.380Z,15.80
2019-05-22T04:09:51.995Z,15.90
2019-05-22T04:12:24.953Z,15.90
2019-05-22T04:14:56.665Z,15.90
2019-05-22T04:17:28.978Z,16.00
2019-05-22T04:20:00.398Z,16.00
2019-05-22T04:22:31.363Z,16.10
2019-05-22T04:25:02.155Z,16.20
2019-05-22T04:27:33.683Z,16.30
2019-05-22T04:30:08.757Z,16.40
2019-05-22T04:32:42.918Z,16.50
2019-05-22T04:35:17.997Z,16.60
2019-05-22T04:37:50.887Z,16.70
2019-05-22T04:40:58.276Z,16.80
2019-05-22T04:43:34.408Z,16.80
2019-05-22T04:46:10.405Z,16.90
2019-05-22T04:48:45.812Z,17.00
2019-05-22T04:51:31.202Z,17.10
2019-05-22T04:54:02.280Z,17.10
2019-05-22T04:56:35.157Z,17.20
2019-05-22T04:59:07.046Z,17.30
2019-05-22T05:01:38.934Z,17.40
2019-05-22T05:04:10.960Z,17.60
2019-05-22T05:06:55.491Z,17.70
2019-05-22T05:09:26.933Z,17.80
2019-05-22T05:11:59.230Z,17.90
2019-05-22T05:14:34.693Z,18.00
2019-05-22T05:17:07.608Z,18.10
2019-05-22T05:19:39.747Z,18.20
2019-05-22T05:22:12.294Z,18.20
2019-05-22T05:24:43.685Z,18.30
2019-05-22T05:27:14.919Z,18.40
2019-05-22T05:29:53.262Z,18.40
2019-05-22T05:32:24.771Z,18.50
2019-05-22T05:35:05.711Z,18.60
2019-05-22T05:37:38.577Z,18.80
2019-05-22T05:40:36.657Z,18.90
2019-05-22T05:43:10.300Z,18.90
2019-05-22T05:45:43.533Z,19.10
2019-05-22T05:48:24.114Z,19.20
2019-05-22T05:51:29.291Z,19.30
2019-05-22T05:54:08.969Z,19.40
2019-05-22T05:56:41.037Z,19.60
2019-05-22T05:59:14.168Z,19.70
2019-05-22T06:01:53.324Z,19.80
2019-05-22T06:04:38.309Z,19.90
2019-05-22T06:07:23.350Z,20.10
2019-05-22T06:10:41.074Z,20.20
2019-05-22T06:13:15.166Z,20.30
2019-05-22T06:16:29.381Z,20.30
2019-05-22T06:19:01.156Z,20.40
2019-05-22T06:21:34.127Z,20.50
2019-05-22T06:24:25.583Z,20.60
2019-05-22T06:27:41.711Z,20.70
2019-05-22T06:30:18.395Z,20.90
2019-05-22T06:33:29.765Z,21.00
2019-05-22T06:36:05.177Z,20.90
2019-05-22T06:39:10.123Z,20.90
2019-05-22T06:41:43.218Z,20.90
2019-05-22T06:44:41.916Z,21.00
2019-05-22T06:47:26.777Z,21.10
2019-05-22T06:49:59.514Z,21.30
2019-05-22T06:52:31.354Z,21.30
2019-05-22T06:55:02.931Z,21.50
2019-05-22T06:57:35.134Z,21.60
2019-05-22T07:00:22.225Z,21.70
2019-05-22T07:02:53.926Z,21.90
2019-05-22T07:05:26.158Z,21.90
2019-05-22T07:07:58.327Z,22.00
2019-05-22T07:10:30.647Z,22.20
2019-05-22T07:13:03.919Z,22.30
2019-05-22T07:15:54.091Z,22.30
2019-05-22T07:18:29.119Z,22.40
2019-05-22T07:21:00.357Z,22.40
2019-05-22T07:23:33.141Z,22.50
2019-05-22T07:26:06.257Z,22.60
2019-05-22T07:28:38.074Z,22.80
2019-05-22T07:31:09.738Z,22.90
2019-05-22T07:33:41.214Z,23.00
2019-05-22T07:36:17.114Z,23.20
2019-05-22T07:38:48.368Z,23.30
2019-05-22T07:41:21.399Z,23.40
2019-05-22T07:43:52.953Z,23.50
2019-05-22T07:46:24.304Z,23.60
2019-05-22T07:48:55.216Z,23.60
2019-05-22T07:51:27.288Z,23.70
2019-05-22T07:53:59.641Z,23.80
2019-05-22T07:56:31.347Z,23.90
2019-05-22T07:59:02.569Z,24.00
2019-05-22T08:01:34.899Z,24.20
2019-05-22T08:04:07.672Z,24.30
2019-05-22T08:06:41.733Z,24.40
2019-05-22T08:09:14.568Z,24.50
2019-05-22T08:11:47.253Z,24.60
2019-05-22T08:14:19.633Z,24.80
2019-05-22T08:16:50.980Z,24.90
2019-05-22T08:19:24.366Z,24.90
2019-05-22T08:22:06.985Z,25.00
2019-05-22T08:24:30.296Z,25.10
2019-05-22T08:27:02.098Z,25.20
2019-05-22T08:29:34.046Z,25.40
2019-05-22T08:32:07.177Z,25.50
2019-05-22T08:34:40.200Z,25.50
2019-05-22T08:37:14.581Z,25.60
2019-05-22T08:39:47.252Z,25.80
2019-05-22T08:42:20.404Z,25.80
2019-05-22T08:44:52.441Z,26.00
2019-05-22T08:47:24.773Z,26.00
2019-05-22T08:49:56.556Z,26.10
2019-05-22T08:52:30.821Z,26.10
2019-05-22T08:55:04.914Z,26.20
2019-05-22T08:57:37.437Z,26.30
2019-05-22T09:00:12.541Z,26.50
2019-05-22T09:02:45.162Z,26.50
2019-05-22T09:05:20.994Z,26.50
2019-05-22T09:07:50.322Z,26.50
2019-05-22T09:10:25.995Z,26.50
2019-05-22T09:12:56.410Z,26.50
2019-05-22T09:15:29.527Z,26.30
2019-05-22T09:18:01.500Z,26.30
2019-05-22T09:20:48.080Z,26.30
2019-05-22T09:23:09.170Z,26.30
2019-05-22T09:25:41.405Z,26.40
2019-05-22T09:28:13.670Z,26.50
2019-05-22T09:30:45.432Z,26.70
2019-05-22T09:33:18.882Z,26.90
2019-05-22T09:35:51.084Z,27.10
2019-05-22T09:38:22.745Z,27.10
2019-05-22T09:40:55.591Z,27.20
2019-05-22T09:43:27.451Z,27.10
2019-05-22T09:45:58.616Z,27.10
2019-05-22T09:48:30.331Z,27.10
2019-05-22T09:51:02.311Z,27.20
2019-05-22T09:53:35.994Z,27.40
2019-05-22T09:56:08.773Z,27.40
2019-05-22T09:58:41.152Z,27.60
2019-05-22T10:01:14.354Z,27.80
2019-05-22T10:03:46.745Z,27.90
2019-05-22T10:06:21.596Z,28.00
2019-05-22T10:08:53.263Z,28.10
2019-05-22T10:11:25.724Z,28.20
2019-05-22T10:13:57.462Z,28.20
2019-05-22T10:16:29.360Z,28.10
2019-05-22T10:19:01.304Z,28.00
2019-05-22T10:21:33.806Z,28.00
2019-05-22T10:24:06.007Z,27.90
2019-05-22T10:26:37.798Z,27.80
2019-05-22T10:29:09.638Z,27.90
2019-05-22T10:31:42.206Z,28.00
2019-05-22T10:34:14.303Z,28.10
2019-05-22T10:36:46.780Z,28.20
2019-05-22T10:39:19.155Z,28.30
2019-05-22T10:41:50.833Z,28.20
2019-05-22T10:44:22.583Z,28.00
2019-05-22T10:46:54.442Z,28.00
2019-05-22T10:49:26.180Z,28.00
2019-05-22T10:51:57.780Z,28.10
2019-05-22T10:54:29.508Z,28.20
2019-05-22T10:57:01.079Z,28.40
2019-05-22T10:59:32.056Z,28.60
2019-05-22T11:02:03.568Z,28.80
2019-05-22T11:04:35.683Z,28.80
2019-05-22T11:07:08.130Z,28.90
2019-05-22T11:09:40.489Z,29.10
2019-05-22T11:12:12.544Z,29.20
2019-05-22T11:14:46.974Z,29.30
2019-05-22T11:17:18.760Z,29.40
2019-05-22T11:19:49.827Z,29.30
2019-05-22T11:22:21.247Z,29.20
2019-05-22T11:24:52.231Z,29.20
2019-05-22T11:27:25.391Z,29.20
2019-05-22T11:29:56.126Z,29.20
2019-05-22T11:32:27.342Z,29.30
2019-05-22T11:34:58.230Z,29.50
2019-05-22T11:37:29.472Z,29.50
2019-05-22T11:40:00.862Z,29.40
2019-05-22T11:42:32.161Z,29.50
2019-05-22T11:45:03.391Z,29.50
2019-05-22T11:47:34.605Z,29.70
2019-05-22T11:50:06.228Z,29.70
2019-05-22T11:52:37.380Z,29.70
2019-05-22T11:55:09.673Z,29.70
2019-05-22T11:57:41.989Z,29.70
2019-05-22T12:00:14.264Z,29.60
2019-05-22T12:02:46.457Z,29.60
2019-05-22T12:05:19.050Z,29.50
2019-05-22T12:07:50.381Z,29.40
2019-05-22T12:10:22.281Z,29.40
2019-05-22T12:12:54.003Z,29.30
2019-05-22T12:15:27.334Z,29.20
2019-05-22T12:17:59.113Z,29.20
2019-05-22T12:20:30.898Z,29.40
2019-05-22T12:23:02.342Z,29.50
2019-05-22T12:25:33.390Z,29.30
2019-05-22T12:28:05.274Z,29.20
2019-05-22T12:30:36.606Z,29.20
2019-05-22T12:33:13.532Z,29.30
2019-05-22T12:35:43.623Z,29.50
2019-05-22T12:38:15.132Z,29.50
2019-05-22T12:40:46.672Z,29.40
2019-05-22T12:43:18.276Z,29.40
2019-05-22T12:45:49.523Z,29.40
2019-05-22T12:48:20.727Z,29.50
2019-05-22T12:50:52.402Z,29.50
2019-05-22T12:53:24.815Z,29.50
2019-05-22T12:55:56.105Z,29.50
2019-05-22T12:58:27.047Z,29.50
2019-05-22T13:00:58.676Z,29.50
2019-05-22T13:03:30.570Z,29.70
2019-05-22T13:06:02.050Z,29.90
2019-05-22T13:08:34.585Z,29.80
2019-05-22T13:11:06.013Z,29.60
2019-05-22T13:13:39.263Z,29.40
2019-05-22T13:16:11.464Z,29.40
2019-05-22T13:18:46.957Z,29.40
2019-05-22T13:21:22.613Z,29.20
2019-05-22T13:23:55.830Z,29.20
2019-05-22T13:26:26.917Z,29.10
2019-05-22T13:28:57.939Z,29.10
2019-05-22T13:31:29.700Z,29.00
2019-05-22T13:34:01.318Z,29.00
2019-05-22T13:36:33.711Z,29.00
2019-05-22T13:39:08.203Z,28.80
2019-05-22T13:41:40.112Z,28.70
2019-05-22T13:44:13.593Z,28.70
2019-05-22T13:46:48.479Z,28.60
2019-05-22T13:49:20.063Z,28.60
2019-05-22T13:51:51.046Z,28.80
2019-05-22T13:54:24.849Z,28.90
2019-05-22T13:56:58.291Z,29.00
2019-05-22T13:59:30.447Z,29.00
2019-05-22T14:02:01.710Z,29.10
2019-05-22T14:04:34.603Z,29.10
2019-05-22T14:07:06.377Z,29.00
2019-05-22T14:09:38.724Z,29.00
2019-05-22T14:12:11.374Z,29.00
2019-05-22T14:14:43.060Z,28.80
2019-05-22T14:17:14.094Z,28.70
2019-05-22T14:19:47.253Z,28.60
2019-05-22T14:22:19.044Z,28.60
2019-05-22T14:24:49.919Z,28.40
2019-05-22T14:27:20.994Z,28.40
2019-05-22T14:29:53.095Z,28.40
2019-05-22T14:32:29.940Z,28.40
2019-05-22T14:34:58.477Z,28.50
2019-05-22T14:37:32.098Z,28.60
2019-05-22T14:40:06.355Z,28.70
2019-05-22T14:42:38.636Z,28.70
2019-05-22T14:45:10.723Z,28.50
2019-05-22T14:47:42.037Z,28.60
2019-05-22T14:50:14.371Z,28.80
2019-05-22T14:52:45.608Z,28.80
2019-05-22T14:55:17.705Z,28.80
2019-05-22T14:57:49.871Z,28.70
2019-05-22T15:00:25.242Z,28.40
2019-05-22T15:02:58.775Z,28.10
2019-05-22T15:05:29.666Z,27.80
2019-05-22T15:08:00.645Z,27.50
2019-05-22T15:10:32.184Z,27.30
2019-05-22T15:13:03.933Z,27.20
2019-05-22T15:15:40.171Z,27.00
2019-05-22T15:18:08.560Z,26.80
2019-05-22T15:20:47.183Z,26.60
2019-05-22T15:23:19.638Z,26.50
2019-05-22T15:25:54.571Z,26.40
2019-05-22T15:28:27.831Z,26.30
2019-05-22T15:30:58.939Z,26.10
2019-05-22T15:33:30.677Z,25.90
2019-05-22T15:36:09.424Z,25.70
2019-05-22T15:38:43.994Z,25.50
2019-05-22T15:41:15.623Z,25.30
2019-05-22T15:44:12.246Z,25.10
2019-05-22T15:47:53.340Z,24.90
2019-05-22T15:50:46.454Z,24.80
2019-05-22T15:53:38.086Z,24.70
2019-05-22T15:56:39.570Z,24.50
2019-05-22T15:59:41.538Z,24.50
2019-05-22T16:02:44.936Z,24.50
2019-05-22T16:05:18.219Z,24.70
2019-05-22T16:07:50.398Z,24.60
2019-05-22T16:10:25.734Z,24.40
2019-05-22T16:12:57.447Z,24.50
2019-05-22T16:15:30.832Z,24.50
2019-05-22T16:18:11.449Z,24.50
2019-05-22T16:20:39.810Z,24.50
2019-05-22T16:23:11.545Z,24.90
2019-05-22T16:25:43.160Z,25.40
2019-05-22T16:28:15.221Z,26.30
2019-05-22T16:30:48.503Z,26.40
2019-05-22T16:33:20.475Z,26.20
2019-05-22T16:35:52.037Z,25.50
2019-05-22T16:38:25.667Z,25.00
2019-05-22T16:40:57.052Z,24.60
2019-05-22T16:43:47.350Z,24.40
2019-05-22T16:46:02.885Z,24.70
2019-05-22T16:48:36.764Z,24.70
2019-05-22T16:51:10.056Z,25.00
2019-05-22T16:53:40.921Z,24.70
2019-05-22T16:56:12.995Z,24.30
2019-05-22T16:58:44.143Z,24.00
2019-05-22T17:01:16.776Z,23.80
2019-05-22T17:03:51.742Z,23.60
2019-05-22T17:06:23.675Z,23.50
2019-05-22T17:08:59.589Z,23.30
2019-05-22T17:11:32.010Z,23.20
2019-05-22T17:14:06.942Z,23.20
2019-05-22T17:16:41.308Z,23.20
2019-05-22T17:19:26.474Z,23.40
2019-05-22T17:21:46.178Z,23.80
2019-05-22T17:24:18.090Z,24.20
2019-05-22T17:26:51.229Z,24.30
2019-05-22T17:29:22.415Z,24.10
2019-05-22T17:31:54.528Z,23.80
2019-05-22T17:34:35.459Z,23.60
2019-05-22T17:37:13.750Z,23.40
2019-05-22T17:39:48.539Z,23.20
2019-05-22T17:42:23.597Z,23.00
2019-05-22T17:44:56.022Z,22.90
2019-05-22T17:47:30.943Z,22.90
2019-05-22T17:50:03.358Z,22.80
2019-05-22T17:52:34.904Z,22.50
2019-05-22T17:55:08.598Z,22.10
2019-05-22T17:57:40.446Z,21.80
2019-05-22T18:00:18.823Z,21.50
2019-05-22T18:02:49.956Z,21.30
2019-05-22T18:05:21.630Z,21.10
2019-05-22T18:07:52.577Z,20.90
2019-05-22T18:10:24.139Z,20.80
2019-05-22T18:12:55.533Z,20.70
2019-05-22T18:15:26.890Z,20.50
2019-05-22T18:17:59.880Z,20.40
2019-05-22T18:21:04.160Z,20.30
2019-05-22T18:37:14.061Z,19.80
2019-05-22T18:39:45.054Z,19.60
2019-05-22T18:42:16.558Z,19.50
2019-05-22T18:44:47.501Z,19.40
2019-05-22T18:47:18.518Z,19.30
2019-05-22T18:49:49.389Z,19.20
2019-05-22T18:52:20.697Z,19.20
2019-05-22T18:54:51.897Z,19.10
2019-05-22T18:57:22.948Z,19.00
2019-05-22T19:00:00.220Z,19.00
2019-05-22T19:02:26.757Z,18.90
2019-05-22T19:04:57.614Z,18.80
2019-05-22T19:07:28.398Z,18.70
2019-05-22T19:09:59.308Z,18.60
2019-05-22T19:12:31.322Z,18.50
2019-05-22T19:15:02.368Z,18.40
2019-05-22T19:17:33.956Z,18.40
2019-05-22T19:20:05.714Z,18.30
2019-05-22T19:22:37.248Z,18.30
2019-05-22T19:25:08.603Z,18.20
2019-05-22T19:27:39.611Z,18.20
2019-05-22T19:30:12.110Z,18.10
2019-05-22T19:32:43.301Z,18.00
2019-05-22T19:35:14.840Z,17.90
2019-05-22T19:37:47.060Z,17.90
2019-05-22T19:40:19.953Z,17.80
2019-05-22T19:42:51.751Z,17.70
2019-05-22T19:45:23.753Z,17.60
2019-05-22T19:47:57.170Z,17.60
2019-05-22T19:50:29.488Z,17.50
2019-05-22T19:53:17.592Z,17.50
2019-05-22T19:55:35.242Z,17.40
2019-05-22T19:58:09.820Z,17.40
2019-05-22T20:00:42.461Z,17.40
2019-05-22T20:03:17.510Z,17.40
2019-05-22T20:05:48.775Z,17.30
2019-05-22T20:08:19.976Z,17.30
2019-05-22T20:10:51.624Z,17.20
2019-05-22T20:13:24.945Z,17.10
2019-05-22T20:15:55.980Z,17.10
2019-05-22T20:18:27.015Z,17.10
2019-05-22T20:20:58.569Z,17.10
2019-05-22T20:23:35.933Z,17.20
2019-05-22T20:26:03.593Z,17.10
2019-05-22T20:28:43.161Z,17.10
2019-05-22T20:31:14.538Z,17.20
2019-05-22T20:33:45.551Z,17.20
2019-05-22T20:36:17.273Z,17.20
2019-05-22T20:38:51.549Z,17.10
2019-05-22T20:41:22.626Z,17.10
2019-05-22T20:43:54.134Z,17.00
2019-05-22T20:46:25.420Z,16.90
2019-05-22T20:48:57.401Z,16.80
2019-05-22T20:51:28.327Z,16.70
2019-05-22T20:54:00.278Z,16.60
2019-05-22T20:56:32.126Z,16.50
2019-05-22T20:59:03.649Z,16.40
2019-05-22T21:01:34.912Z,16.30
2019-05-22T21:04:11.216Z,16.20
2019-05-22T21:06:49.117Z,16.10
2019-05-22T21:09:20.643Z,15.90
2019-05-22T21:11:51.916Z,15.80
2019-05-22T21:14:24.289Z,15.70
2019-05-22T21:16:55.935Z,15.60
2019-05-22T21:19:28.611Z,15.60
2019-05-22T21:21:59.647Z,15.60
2019-05-22T21:24:30.507Z,15.70
2019-05-22T21:27:01.740Z,15.70
2019-05-22T21:29:33.449Z,15.70
2019-05-22T21:32:06.333Z,15.80
2019-05-22T21:34:38.221Z,15.80
2019-05-22T21:37:10.181Z,15.70
2019-05-22T21:39:42.264Z,15.60
2019-05-22T21:42:13.363Z,15.60
2019-05-22T21:44:44.567Z,15.60
2019-05-22T21:47:16.752Z,15.60
2019-05-22T21:49:48.073Z,15.60
2019-05-22T21:52:19.771Z,15.50
2019-05-22T21:54:50.659Z,15.50
2019-05-22T21:57:21.859Z,15.50
2019-05-22T21:59:53.890Z,15.40
2019-05-22T22:02:33.163Z,15.40
2019-05-22T22:05:05.195Z,15.40
2019-05-22T22:07:36.656Z,15.30
2019-05-22T22:10:08.179Z,15.40
2019-05-22T22:12:39.797Z,15.40
2019-05-22T22:15:12.523Z,15.30
2019-05-22T22:17:45.858Z,15.30
2019-05-22T22:20:18.954Z,15.20
2019-05-22T22:22:51.600Z,15.20
2019-05-22T22:25:24.043Z,15.10
2019-05-22T22:27:55.355Z,15.00
2019-05-22T22:30:34.832Z,15.00
2019-05-22T22:33:10.265Z,14.90
2019-05-22T22:35:41.523Z,14.90
2019-05-22T22:38:12.929Z,14.90
2019-05-22T22:40:44.099Z,15.00
2019-05-22T22:43:15.636Z,15.10
2019-05-22T22:46:05.825Z,15.20
2019-05-22T22:48:39.693Z,15.20
2019-05-22T22:51:13.107Z,15.20
2019-05-22T22:53:45.905Z,15.20
2019-05-22T22:56:19.476Z,15.00
2019-05-22T22:58:50.494Z,15.00
2019-05-22T23:01:27.547Z,15.00
2019-05-22T23:04:01.314Z,14.90
2019-05-22T23:06:36.055Z,14.90
2019-05-22T23:09:08.475Z,14.80
2019-05-22T23:11:43.515Z,14.90
2019-05-22T23:14:15.635Z,14.90
2019-05-22T23:16:47.107Z,14.90
2019-05-22T23:19:38.743Z,14.90
2019-05-22T23:22:12.876Z,14.80
2019-05-22T23:24:44.568Z,14.80
2019-05-22T23:27:17.096Z,14.90
2019-05-22T23:29:49.426Z,14.70
2019-05-22T23:32:21.392Z,14.60
2019-05-22T23:34:52.341Z,14.60
2019-05-22T23:37:24.383Z,14.60
2019-05-22T23:39:56.146Z,14.50
2019-05-22T23:42:34.556Z,14.40
2019-05-22T23:45:10.622Z,14.40
2019-05-22T23:47:53.528Z,14.40
2019-05-22T23:50:25.496Z,14.40
2019-05-22T23:52:57.038Z,14.40
2019-05-22T23:55:29.673Z,14.40
2019-05-22T23:58:05.316Z,14.30
